sensor_id;sensor_type;location;lat;lon;timestamp;P1;durP1;ratioP1;P2;durP2;ratioP2
44732;SDS011;30460;50.836;4.390;2022-12-07T06:15:06;13.63;;;11.27;;
44732;SDS011;30460;50.836;4.390;2022-12-07T06:17:32;13.50;;;7.73;;
44732;SDS011;30460;50.836;4.390;2022-12-07T06:19:59;11.70;;;7.57;;
44732;SDS011;30460;50.836;4.390;2022-12-07T06:22:25;8.90;;;7.13;;
44732;SDS011;30460;50.836;4.390;2022-12-07T06:24:51;10.67;;;7.20;;
44732;SDS011;30460;50.836;4.390;2022-12-07T06:27:17;8.73;;;6.77;;
44732;SDS011;30460;50.836;4.390;2022-12-07T06:29:45;12.13;;;7.93;;
44732;SDS011;30460;50.836;4.390;2022-12-07T06:32:11;10.97;;;7.23;;
44732;SDS011;30460;50.836;4.390;2022-12-07T06:34:37;8.70;;;6.80;;
44732;SDS011;30460;50.836;4.390;2022-12-07T06:37:04;9.70;;;7.00;;
44732;SDS011;30460;50.836;4.390;2022-12-07T06:39:30;10.10;;;7.27;;
44732;SDS011;30460;50.836;4.390;2022-12-07T06:41:56;10.53;;;6.77;;
44732;SDS011;30460;50.836;4.390;2022-12-07T06:44:22;13.60;;;7.10;;
44732;SDS011;30460;50.836;4.390;2022-12-07T06:46:49;10.60;;;7.03;;
44732;SDS011;30460;50.836;4.390;2022-12-07T06:49:15;10.07;;;7.73;;
44732;SDS011;30460;50.836;4.390;2022-12-07T06:51:42;8.90;;;6.90;;
44732;SDS011;30460;50.836;4.390;2022-12-07T06:54:08;8.57;;;6.50;;
44732;SDS011;30460;50.836;4.390;2022-12-07T06:56:35;8.83;;;6.40;;
44732;SDS011;30460;50.836;4.390;2022-12-07T06:59:01;11.47;;;6.47;;
44732;SDS011;30460;50.836;4.390;2022-12-07T07:01:27;11.00;;;6.17;;
44732;SDS011;30460;50.836;4.390;2022-12-07T07:03:53;8.40;;;6.27;;
44732;SDS011;30460;50.836;4.390;2022-12-07T07:06:20;8.90;;;5.80;;
44732;SDS011;30460;50.836;4.390;2022-12-07T07:08:46;9.37;;;6.40;;
44732;SDS011;30460;50.836;4.390;2022-12-07T07:11:12;7.47;;;5.73;;
44732;SDS011;30460;50.836;4.390;2022-12-07T07:13:38;8.10;;;6.00;;
44732;SDS011;30460;50.836;4.390;2022-12-07T07:16:07;7.87;;;5.97;;
44732;SDS011;30460;50.836;4.390;2022-12-07T07:18:33;9.00;;;6.53;;
44732;SDS011;30460;50.836;4.390;2022-12-07T07:20:59;8.70;;;5.83;;
44732;SDS011;30460;50.836;4.390;2022-12-07T07:23:26;11.97;;;8.00;;
44732;SDS011;30460;50.836;4.390;2022-12-07T07:25:52;11.53;;;7.30;;
44732;SDS011;30460;50.836;4.390;2022-12-07T07:28:18;12.77;;;6.77;;
44732;SDS011;30460;50.836;4.390;2022-12-07T07:30:44;14.07;;;7.10;;
44732;SDS011;30460;50.836;4.390;2022-12-07T07:33:10;10.80;;;6.57;;
44732;SDS011;30460;50.836;4.390;2022-12-07T07:35:37;11.50;;;6.30;;
44732;SDS011;30460;50.836;4.390;2022-12-07T07:38:04;10.00;;;6.93;;
44732;SDS011;30460;50.836;4.390;2022-12-07T07:40:30;7.97;;;6.43;;
44732;SDS011;30460;50.836;4.390;2022-12-07T07:42:56;14.70;;;7.63;;
44732;SDS011;30460;50.836;4.390;2022-12-07T07:45:23;9.30;;;7.03;;
44732;SDS011;30460;50.836;4.390;2022-12-07T07:47:50;10.93;;;6.87;;
44732;SDS011;30460;50.836;4.390;2022-12-07T07:50:16;10.07;;;7.10;;
44732;SDS011;30460;50.836;4.390;2022-12-07T07:52:43;9.83;;;6.83;;
44732;SDS011;30460;50.836;4.390;2022-12-07T07:55:09;12.40;;;7.23;;
44732;SDS011;30460;50.836;4.390;2022-12-07T07:57:36;11.37;;;7.27;;
44732;SDS011;30460;50.836;4.390;2022-12-07T08:00:12;11.47;;;7.07;;
44732;SDS011;30460;50.836;4.390;2022-12-07T08:02:38;10.90;;;7.07;;
44732;SDS011;30460;50.836;4.390;2022-12-07T08:05:05;13.40;;;7.30;;
44732;SDS011;30460;50.836;4.390;2022-12-07T08:07:31;11.43;;;7.63;;
44732;SDS011;30460;50.836;4.390;2022-12-07T08:09:57;24.80;;;16.53;;
44732;SDS011;30460;50.836;4.390;2022-12-07T08:12:23;9.13;;;6.77;;
44732;SDS011;30460;50.836;4.390;2022-12-07T08:14:49;10.77;;;7.47;;
44732;SDS011;30460;50.836;4.390;2022-12-07T08:17:15;12.73;;;7.47;;
44732;SDS011;30460;50.836;4.390;2022-12-07T08:19:41;13.77;;;7.67;;
44732;SDS011;30460;50.836;4.390;2022-12-07T08:22:07;10.13;;;7.23;;
44732;SDS011;30460;50.836;4.390;2022-12-07T08:24:34;13.33;;;7.47;;
44732;SDS011;30460;50.836;4.390;2022-12-07T08:27:00;12.33;;;7.50;;
44732;SDS011;30460;50.836;4.390;2022-12-07T08:29:26;10.73;;;7.43;;
44732;SDS011;30460;50.836;4.390;2022-12-07T08:31:53;10.90;;;7.40;;
44732;SDS011;30460;50.836;4.390;2022-12-07T08:34:19;10.37;;;8.07;;
44732;SDS011;30460;50.836;4.390;2022-12-07T08:36:45;10.33;;;6.97;;
44732;SDS011;30460;50.836;4.390;2022-12-07T08:39:11;10.60;;;7.27;;
44732;SDS011;30460;50.836;4.390;2022-12-07T08:41:40;11.47;;;6.57;;
44732;SDS011;30460;50.836;4.390;2022-12-07T08:44:10;9.23;;;6.37;;
44732;SDS011;30460;50.836;4.390;2022-12-07T08:46:48;7.27;;;6.13;;
44732;SDS011;30460;50.836;4.390;2022-12-07T08:49:20;13.20;;;7.40;;
44732;SDS011;30460;50.836;4.390;2022-12-07T08:51:47;13.10;;;7.27;;
44732;SDS011;30460;50.836;4.390;2022-12-07T08:54:15;9.90;;;7.37;;
44732;SDS011;30460;50.836;4.390;2022-12-07T08:56:42;11.90;;;7.43;;
44732;SDS011;30460;50.836;4.390;2022-12-07T08:59:09;11.23;;;7.53;;
44732;SDS011;30460;50.836;4.390;2022-12-07T09:01:37;12.77;;;7.67;;
44732;SDS011;30460;50.836;4.390;2022-12-07T09:04:03;9.70;;;7.60;;
44732;SDS011;30460;50.836;4.390;2022-12-07T09:06:29;11.90;;;8.00;;
44732;SDS011;30460;50.836;4.390;2022-12-07T09:08:56;16.03;;;10.53;;
44732;SDS011;30460;50.836;4.390;2022-12-07T09:11:23;19.47;;;7.30;;
44732;SDS011;30460;50.836;4.390;2022-12-07T09:13:49;10.93;;;5.97;;
44732;SDS011;30460;50.836;4.390;2022-12-07T09:16:15;9.47;;;5.50;;
44732;SDS011;30460;50.836;4.390;2022-12-07T09:18:41;7.77;;;5.07;;
44732;SDS011;30460;50.836;4.390;2022-12-07T09:21:08;8.20;;;5.70;;
44732;SDS011;30460;50.836;4.390;2022-12-07T09:23:34;10.57;;;5.87;;
44732;SDS011;30460;50.836;4.390;2022-12-07T09:26:01;6.97;;;5.30;;
44732;SDS011;30460;50.836;4.390;2022-12-07T09:28:27;11.47;;;6.00;;
44732;SDS011;30460;50.836;4.390;2022-12-07T09:30:53;10.77;;;5.50;;
44732;SDS011;30460;50.836;4.390;2022-12-07T09:33:19;12.77;;;5.67;;
44732;SDS011;30460;50.836;4.390;2022-12-07T09:35:46;11.27;;;5.47;;
44732;SDS011;30460;50.836;4.390;2022-12-07T09:38:12;8.97;;;5.50;;
44732;SDS011;30460;50.836;4.390;2022-12-07T09:40:39;11.57;;;6.17;;
44732;SDS011;30460;50.836;4.390;2022-12-07T09:43:08;10.97;;;5.50;;
44732;SDS011;30460;50.836;4.390;2022-12-07T09:45:37;8.77;;;5.73;;
44732;SDS011;30460;50.836;4.390;2022-12-07T09:48:04;12.27;;;6.10;;
44732;SDS011;30460;50.836;4.390;2022-12-07T09:50:30;10.70;;;5.60;;
44732;SDS011;30460;50.836;4.390;2022-12-07T09:53:11;8.67;;;5.83;;
44732;SDS011;30460;50.836;4.390;2022-12-07T09:55:40;8.73;;;5.70;;
44732;SDS011;30460;50.836;4.390;2022-12-07T09:58:08;11.83;;;5.90;;
44732;SDS011;30460;50.836;4.390;2022-12-07T10:00:39;9.10;;;5.40;;
44732;SDS011;30460;50.836;4.390;2022-12-07T10:03:07;8.33;;;5.90;;
44732;SDS011;30460;50.836;4.390;2022-12-07T10:05:35;12.23;;;5.40;;
44732;SDS011;30460;50.836;4.390;2022-12-07T10:08:03;10.50;;;6.23;;
44732;SDS011;30460;50.836;4.390;2022-12-07T10:10:30;11.50;;;6.70;;
44732;SDS011;30460;50.836;4.390;2022-12-07T10:13:01;10.27;;;6.60;;
44732;SDS011;30460;50.836;4.390;2022-12-07T10:16:00;7.60;;;5.50;;
44732;SDS011;30460;50.836;4.390;2022-12-07T10:18:32;11.47;;;6.87;;
44732;SDS011;30460;50.836;4.390;2022-12-07T10:23:40;13.70;;;7.10;;
44732;SDS011;30460;50.836;4.390;2022-12-07T10:26:50;13.43;;;7.03;;
44732;SDS011;30460;50.836;4.390;2022-12-07T10:28:58;10.17;;;6.60;;
44732;SDS011;30460;50.836;4.390;2022-12-07T10:31:25;12.17;;;6.93;;
44732;SDS011;30460;50.836;4.390;2022-12-07T10:33:58;10.90;;;6.53;;
44732;SDS011;30460;50.836;4.390;2022-12-07T10:39:09;12.97;;;7.50;;
44732;SDS011;30460;50.836;4.390;2022-12-07T10:41:43;14.50;;;9.13;;
44732;SDS011;30460;50.836;4.390;2022-12-07T10:44:22;14.13;;;9.17;;
44732;SDS011;30460;50.836;4.390;2022-12-07T10:49:31;12.77;;;7.37;;
44732;SDS011;30460;50.836;4.390;2022-12-07T10:54:48;11.13;;;5.97;;
44732;SDS011;30460;50.836;4.390;2022-12-07T11:00:18;11.30;;;6.93;;
44732;SDS011;30460;50.836;4.390;2022-12-07T11:02:51;10.97;;;5.87;;
44732;SDS011;30460;50.836;4.390;2022-12-07T11:05:26;13.20;;;8.03;;
44732;SDS011;30460;50.836;4.390;2022-12-07T11:10:41;9.30;;;5.47;;
44732;SDS011;30460;50.836;4.390;2022-12-07T11:20:52;8.30;;;5.33;;
44732;SDS011;30460;50.836;4.390;2022-12-07T11:33:57;7.60;;;4.70;;
44732;SDS011;30460;50.836;4.390;2022-12-07T11:36:37;8.53;;;4.67;;
44732;SDS011;30460;50.836;4.390;2022-12-07T11:39:28;8.03;;;4.37;;
44732;SDS011;30460;50.836;4.390;2022-12-07T11:41:54;7.93;;;4.30;;
44732;SDS011;30460;50.836;4.390;2022-12-07T11:49:21;9.23;;;5.17;;
44732;SDS011;30460;50.836;4.390;2022-12-07T11:51:51;7.50;;;4.70;;
44732;SDS011;30460;50.836;4.390;2022-12-07T11:54:19;9.10;;;5.17;;
44732;SDS011;30460;50.836;4.390;2022-12-07T11:56:47;7.43;;;5.03;;
44732;SDS011;30460;50.836;4.390;2022-12-07T11:59:23;7.00;;;4.50;;
44732;SDS011;30460;50.836;4.390;2022-12-07T12:01:56;9.30;;;4.70;;
44732;SDS011;30460;50.836;4.390;2022-12-07T12:06:50;8.53;;;4.07;;
44732;SDS011;30460;50.836;4.390;2022-12-07T12:15:26;9.93;;;4.90;;
44732;SDS011;30460;50.836;4.390;2022-12-07T12:28:20;8.30;;;3.27;;
44732;SDS011;30460;50.836;4.390;2022-12-07T12:31:03;6.33;;;3.40;;
44732;SDS011;30460;50.836;4.390;2022-12-07T12:33:30;4.43;;;2.90;;
44732;SDS011;30460;50.836;4.390;2022-12-07T12:44:38;4.67;;;3.17;;
44732;SDS011;30460;50.836;4.390;2022-12-07T12:46:55;4.70;;;3.10;;
44732;SDS011;30460;50.836;4.390;2022-12-07T12:54:21;4.53;;;2.57;;
44732;SDS011;30460;50.836;4.390;2022-12-07T12:59:24;6.13;;;3.23;;
44732;SDS011;30460;50.836;4.390;2022-12-07T13:01:51;4.67;;;2.43;;
44732;SDS011;30460;50.836;4.390;2022-12-07T13:04:36;4.43;;;2.53;;
44732;SDS011;30460;50.836;4.390;2022-12-07T13:07:04;6.10;;;3.10;;
44732;SDS011;30460;50.836;4.390;2022-12-07T13:09:31;2.80;;;2.40;;
44732;SDS011;30460;50.836;4.390;2022-12-07T13:12:23;9.00;;;2.83;;
44732;SDS011;30460;50.836;4.390;2022-12-07T13:14:53;6.10;;;2.90;;
44732;SDS011;30460;50.836;4.390;2022-12-07T13:19:59;5.47;;;2.90;;
44732;SDS011;30460;50.836;4.390;2022-12-07T13:27:34;7.50;;;3.53;;
44732;SDS011;30460;50.836;4.390;2022-12-07T13:30:02;6.03;;;3.20;;
44732;SDS011;30460;50.836;4.390;2022-12-07T13:32:33;5.70;;;2.97;;
44732;SDS011;30460;50.836;4.390;2022-12-07T13:35:03;7.37;;;3.60;;
44732;SDS011;30460;50.836;4.390;2022-12-07T13:37:48;10.03;;;4.03;;
44732;SDS011;30460;50.836;4.390;2022-12-07T13:40:18;5.77;;;3.40;;
44732;SDS011;30460;50.836;4.390;2022-12-07T13:42:46;5.03;;;3.50;;
44732;SDS011;30460;50.836;4.390;2022-12-07T13:45:31;5.87;;;3.10;;
44732;SDS011;30460;50.836;4.390;2022-12-07T13:48:33;7.70;;;4.63;;
44732;SDS011;30460;50.836;4.390;2022-12-07T13:51:02;5.53;;;3.40;;
44732;SDS011;30460;50.836;4.390;2022-12-07T13:53:29;6.70;;;2.80;;
44732;SDS011;30460;50.836;4.390;2022-12-07T13:55:59;4.97;;;2.63;;
44732;SDS011;30460;50.836;4.390;2022-12-07T13:58:26;9.00;;;3.13;;
44732;SDS011;30460;50.836;4.390;2022-12-07T14:00:52;5.37;;;2.80;;
44732;SDS011;30460;50.836;4.390;2022-12-07T14:03:25;7.87;;;3.17;;
44732;SDS011;30460;50.836;4.390;2022-12-07T14:08:37;6.93;;;3.60;;
44732;SDS011;30460;50.836;4.390;2022-12-07T14:11:03;4.70;;;2.70;;
44732;SDS011;30460;50.836;4.390;2022-12-07T14:13:32;4.90;;;2.40;;
44732;SDS011;30460;50.836;4.390;2022-12-07T14:15:59;5.07;;;2.70;;
44732;SDS011;30460;50.836;4.390;2022-12-07T14:18:26;7.63;;;2.63;;
44732;SDS011;30460;50.836;4.390;2022-12-07T14:21:04;7.40;;;4.00;;
44732;SDS011;30460;50.836;4.390;2022-12-07T14:23:30;4.60;;;2.37;;
44732;SDS011;30460;50.836;4.390;2022-12-07T14:34:59;4.93;;;2.67;;
44732;SDS011;30460;50.836;4.390;2022-12-07T14:37:26;6.43;;;3.30;;
44732;SDS011;30460;50.836;4.390;2022-12-07T14:39:52;8.87;;;3.80;;
44732;SDS011;30460;50.836;4.390;2022-12-07T14:42:18;5.77;;;3.10;;
44732;SDS011;30460;50.836;4.390;2022-12-07T14:44:45;7.90;;;3.80;;
44732;SDS011;30460;50.836;4.390;2022-12-07T14:47:14;3.63;;;3.20;;
44732;SDS011;30460;50.836;4.390;2022-12-07T14:49:40;5.80;;;2.80;;
44732;SDS011;30460;50.836;4.390;2022-12-07T14:52:09;5.27;;;2.23;;
44732;SDS011;30460;50.836;4.390;2022-12-07T14:54:38;4.97;;;2.47;;
44732;SDS011;30460;50.836;4.390;2022-12-07T14:57:04;5.40;;;2.70;;
44732;SDS011;30460;50.836;4.390;2022-12-07T14:59:30;4.07;;;2.90;;
44732;SDS011;30460;50.836;4.390;2022-12-07T15:01:56;5.33;;;2.77;;
44732;SDS011;30460;50.836;4.390;2022-12-07T15:04:22;3.93;;;2.50;;
44732;SDS011;30460;50.836;4.390;2022-12-07T15:09:25;4.97;;;2.40;;
44732;SDS011;30460;50.836;4.390;2022-12-07T15:11:52;4.53;;;2.20;;
44732;SDS011;30460;50.836;4.390;2022-12-07T15:14:19;4.47;;;2.50;;
44732;SDS011;30460;50.836;4.390;2022-12-07T15:16:45;4.33;;;2.50;;
44732;SDS011;30460;50.836;4.390;2022-12-07T15:19:12;5.00;;;2.27;;
44732;SDS011;30460;50.836;4.390;2022-12-07T15:21:48;3.00;;;1.90;;
44732;SDS011;30460;50.836;4.390;2022-12-07T15:24:15;3.73;;;2.20;;
44732;SDS011;30460;50.836;4.390;2022-12-07T15:26:41;3.67;;;2.20;;
44732;SDS011;30460;50.836;4.390;2022-12-07T15:29:07;5.37;;;2.43;;
44732;SDS011;30460;50.836;4.390;2022-12-07T15:31:34;6.07;;;2.30;;
44732;SDS011;30460;50.836;4.390;2022-12-07T15:34:00;4.33;;;2.30;;
44732;SDS011;30460;50.836;4.390;2022-12-07T15:36:27;3.50;;;2.60;;
44732;SDS011;30460;50.836;4.390;2022-12-07T15:38:54;5.57;;;2.70;;
44732;SDS011;30460;50.836;4.390;2022-12-07T15:41:20;5.13;;;2.83;;
44732;SDS011;30460;50.836;4.390;2022-12-07T15:43:46;5.10;;;2.80;;
44732;SDS011;30460;50.836;4.390;2022-12-07T15:46:32;5.87;;;3.03;;
44732;SDS011;30460;50.836;4.390;2022-12-07T15:48:59;4.17;;;2.57;;
44732;SDS011;30460;50.836;4.390;2022-12-07T15:51:25;10.77;;;3.03;;
44732;SDS011;30460;50.836;4.390;2022-12-07T15:53:52;5.40;;;3.00;;
44732;SDS011;30460;50.836;4.390;2022-12-07T15:56:18;3.70;;;3.20;;
44732;SDS011;30460;50.836;4.390;2022-12-07T15:58:44;7.03;;;3.50;;
44732;SDS011;30460;50.836;4.390;2022-12-07T16:01:13;5.63;;;3.70;;
44732;SDS011;30460;50.836;4.390;2022-12-07T16:03:40;8.03;;;3.60;;
44732;SDS011;30460;50.836;4.390;2022-12-07T16:06:06;4.40;;;3.60;;
44732;SDS011;30460;50.836;4.390;2022-12-07T16:08:32;6.13;;;3.57;;
44732;SDS011;30460;50.836;4.390;2022-12-07T16:10:59;7.13;;;4.13;;
44732;SDS011;30460;50.836;4.390;2022-12-07T16:13:25;5.93;;;4.50;;
44732;SDS011;30460;50.836;4.390;2022-12-07T16:15:51;7.20;;;4.50;;
44732;SDS011;30460;50.836;4.390;2022-12-07T16:18:17;7.70;;;4.50;;
44732;SDS011;30460;50.836;4.390;2022-12-07T16:20:43;8.17;;;5.03;;
44732;SDS011;30460;50.836;4.390;2022-12-07T16:23:09;8.00;;;4.87;;
44732;SDS011;30460;50.836;4.390;2022-12-07T16:25:35;7.80;;;5.00;;
44732;SDS011;30460;50.836;4.390;2022-12-07T16:28:05;6.10;;;4.30;;
44732;SDS011;30460;50.836;4.390;2022-12-07T16:30:31;5.90;;;4.17;;
44732;SDS011;30460;50.836;4.390;2022-12-07T16:32:57;5.67;;;3.87;;
44732;SDS011;30460;50.836;4.390;2022-12-07T16:35:23;7.60;;;4.07;;
44732;SDS011;30460;50.836;4.390;2022-12-07T16:37:49;7.97;;;4.60;;
44732;SDS011;30460;50.836;4.390;2022-12-07T16:40:15;8.00;;;4.80;;
44732;SDS011;30460;50.836;4.390;2022-12-07T16:42:41;5.27;;;4.10;;
44732;SDS011;30460;50.836;4.390;2022-12-07T16:45:07;5.93;;;4.50;;
44732;SDS011;30460;50.836;4.390;2022-12-07T16:47:36;6.07;;;4.63;;
44732;SDS011;30460;50.836;4.390;2022-12-07T16:50:03;8.67;;;4.60;;
44732;SDS011;30460;50.836;4.390;2022-12-07T16:52:29;8.90;;;4.97;;
44732;SDS011;30460;50.836;4.390;2022-12-07T16:54:58;6.53;;;4.73;;
44732;SDS011;30460;50.836;4.390;2022-12-07T16:57:24;6.70;;;4.73;;
44732;SDS011;30460;50.836;4.390;2022-12-07T16:59:51;6.53;;;4.27;;
44732;SDS011;30460;50.836;4.390;2022-12-07T17:02:17;8.70;;;4.93;;
44732;SDS011;30460;50.836;4.390;2022-12-07T17:04:44;8.40;;;4.47;;
44732;SDS011;30460;50.836;4.390;2022-12-07T17:07:10;5.97;;;4.50;;
44732;SDS011;30460;50.836;4.390;2022-12-07T17:09:36;6.47;;;4.80;;
44732;SDS011;30460;50.836;4.390;2022-12-07T17:12:02;6.83;;;5.00;;
44732;SDS011;30460;50.836;4.390;2022-12-07T17:14:30;6.97;;;4.77;;
44732;SDS011;30460;50.836;4.390;2022-12-07T17:17:15;9.73;;;4.57;;
44732;SDS011;30460;50.836;4.390;2022-12-07T17:19:41;5.30;;;4.20;;
44732;SDS011;30460;50.836;4.390;2022-12-07T17:22:07;6.50;;;4.40;;
44732;SDS011;30460;50.836;4.390;2022-12-07T17:24:36;7.47;;;4.17;;
44732;SDS011;30460;50.836;4.390;2022-12-07T17:27:02;7.63;;;4.23;;
44732;SDS011;30460;50.836;4.390;2022-12-07T17:29:28;5.33;;;3.90;;
44732;SDS011;30460;50.836;4.390;2022-12-07T17:32:00;5.17;;;4.20;;
44732;SDS011;30460;50.836;4.390;2022-12-07T17:34:26;6.43;;;4.17;;
44732;SDS011;30460;50.836;4.390;2022-12-07T17:36:53;6.47;;;4.73;;
44732;SDS011;30460;50.836;4.390;2022-12-07T17:39:19;6.23;;;4.40;;
44732;SDS011;30460;50.836;4.390;2022-12-07T17:41:46;10.20;;;5.10;;
44732;SDS011;30460;50.836;4.390;2022-12-07T17:44:33;10.27;;;5.10;;
44732;SDS011;30460;50.836;4.390;2022-12-07T17:47:02;8.03;;;5.13;;
44732;SDS011;30460;50.836;4.390;2022-12-07T17:49:30;9.33;;;5.50;;
44732;SDS011;30460;50.836;4.390;2022-12-07T17:51:56;8.40;;;5.30;;
44732;SDS011;30460;50.836;4.390;2022-12-07T17:54:40;10.37;;;6.10;;
44732;SDS011;30460;50.836;4.390;2022-12-07T17:57:06;8.07;;;5.80;;
44732;SDS011;30460;50.836;4.390;2022-12-07T17:59:33;6.97;;;6.07;;
44732;SDS011;30460;50.836;4.390;2022-12-07T18:01:59;10.73;;;7.20;;
44732;SDS011;30460;50.836;4.390;2022-12-07T18:04:26;10.00;;;7.20;;
44732;SDS011;30460;50.836;4.390;2022-12-07T18:06:52;8.73;;;7.07;;
44732;SDS011;30460;50.836;4.390;2022-12-07T18:12:01;9.50;;;7.20;;
44732;SDS011;30460;50.836;4.390;2022-12-07T18:14:27;11.13;;;7.90;;
44732;SDS011;30460;50.836;4.390;2022-12-07T18:16:54;10.63;;;6.90;;
44732;SDS011;30460;50.836;4.390;2022-12-07T18:19:20;9.03;;;7.67;;
44732;SDS011;30460;50.836;4.390;2022-12-07T18:21:46;10.67;;;7.33;;
44732;SDS011;30460;50.836;4.390;2022-12-07T18:24:13;7.73;;;6.83;;
44732;SDS011;30460;50.836;4.390;2022-12-07T18:26:40;9.93;;;7.60;;
44732;SDS011;30460;50.836;4.390;2022-12-07T18:29:06;11.13;;;8.07;;
44732;SDS011;30460;50.836;4.390;2022-12-07T18:31:33;11.10;;;7.37;;
44732;SDS011;30460;50.836;4.390;2022-12-07T18:34:04;9.07;;;7.70;;
44732;SDS011;30460;50.836;4.390;2022-12-07T18:36:33;10.03;;;7.90;;
44732;SDS011;30460;50.836;4.390;2022-12-07T18:38:59;12.63;;;8.03;;
44732;SDS011;30460;50.836;4.390;2022-12-07T18:41:25;9.93;;;7.77;;
44732;SDS011;30460;50.836;4.390;2022-12-07T18:43:52;11.00;;;9.00;;
44732;SDS011;30460;50.836;4.390;2022-12-07T18:46:18;12.00;;;9.20;;
44732;SDS011;30460;50.836;4.390;2022-12-07T18:48:45;12.67;;;9.23;;
44732;SDS011;30460;50.836;4.390;2022-12-07T18:51:12;14.00;;;9.17;;
44732;SDS011;30460;50.836;4.390;2022-12-07T18:53:39;14.43;;;8.97;;
44732;SDS011;30460;50.836;4.390;2022-12-07T18:56:12;9.83;;;8.63;;
44732;SDS011;30460;50.836;4.390;2022-12-07T18:58:39;13.20;;;8.87;;
44732;SDS011;30460;50.836;4.390;2022-12-07T19:01:36;11.20;;;8.57;;
44732;SDS011;30460;50.836;4.390;2022-12-07T19:04:03;12.00;;;8.93;;
44732;SDS011;30460;50.836;4.390;2022-12-07T19:06:43;11.30;;;8.27;;
44732;SDS011;30460;50.836;4.390;2022-12-07T19:09:09;9.47;;;7.60;;
44732;SDS011;30460;50.836;4.390;2022-12-07T19:11:36;14.33;;;8.37;;
44732;SDS011;30460;50.836;4.390;2022-12-07T19:14:18;12.07;;;8.03;;
44732;SDS011;30460;50.836;4.390;2022-12-07T19:16:45;11.53;;;8.07;;
44732;SDS011;30460;50.836;4.390;2022-12-07T19:19:14;9.63;;;7.83;;
44732;SDS011;30460;50.836;4.390;2022-12-07T19:21:42;13.23;;;8.37;;
44732;SDS011;30460;50.836;4.390;2022-12-07T19:24:10;10.43;;;8.40;;
44732;SDS011;30460;50.836;4.390;2022-12-07T19:26:36;13.53;;;9.57;;
44732;SDS011;30460;50.836;4.390;2022-12-07T19:29:02;13.17;;;9.43;;
44732;SDS011;30460;50.836;4.390;2022-12-07T19:31:28;14.00;;;9.50;;
44732;SDS011;30460;50.836;4.390;2022-12-07T19:33:55;11.23;;;8.27;;
44732;SDS011;30460;50.836;4.390;2022-12-07T19:36:21;12.23;;;8.87;;
44732;SDS011;30460;50.836;4.390;2022-12-07T19:38:48;13.77;;;9.17;;
44732;SDS011;30460;50.836;4.390;2022-12-07T19:41:14;12.17;;;8.10;;
44732;SDS011;30460;50.836;4.390;2022-12-07T19:44:03;11.53;;;8.50;;
44732;SDS011;30460;50.836;4.390;2022-12-07T19:46:30;9.77;;;8.10;;
44732;SDS011;30460;50.836;4.390;2022-12-07T19:48:56;11.73;;;7.97;;
44732;SDS011;30460;50.836;4.390;2022-12-07T19:51:23;12.00;;;8.27;;
44732;SDS011;30460;50.836;4.390;2022-12-07T19:53:49;9.97;;;7.73;;
44732;SDS011;30460;50.836;4.390;2022-12-07T19:56:16;14.33;;;8.70;;
44732;SDS011;30460;50.836;4.390;2022-12-07T19:58:42;13.37;;;8.07;;
44732;SDS011;30460;50.836;4.390;2022-12-07T20:01:08;10.27;;;7.77;;
44732;SDS011;30460;50.836;4.390;2022-12-07T20:03:41;12.50;;;7.17;;
44732;SDS011;30460;50.836;4.390;2022-12-07T20:06:17;11.43;;;7.80;;
44732;SDS011;30460;50.836;4.390;2022-12-07T20:08:48;12.60;;;8.30;;
44732;SDS011;30460;50.836;4.390;2022-12-07T20:11:15;10.10;;;7.87;;
44732;SDS011;30460;50.836;4.390;2022-12-07T20:14:00;12.30;;;8.20;;
44732;SDS011;30460;50.836;4.390;2022-12-07T20:16:26;13.00;;;8.03;;
44732;SDS011;30460;50.836;4.390;2022-12-07T20:18:53;11.17;;;6.83;;
44732;SDS011;30460;50.836;4.390;2022-12-07T20:21:19;11.60;;;7.80;;
44732;SDS011;30460;50.836;4.390;2022-12-07T20:23:45;9.47;;;8.27;;
44732;SDS011;30460;50.836;4.390;2022-12-07T20:26:12;10.50;;;8.03;;
44732;SDS011;30460;50.836;4.390;2022-12-07T20:28:38;9.13;;;6.97;;
44732;SDS011;30460;50.836;4.390;2022-12-07T20:31:04;9.37;;;7.10;;
44732;SDS011;30460;50.836;4.390;2022-12-07T20:33:30;8.00;;;6.77;;
44732;SDS011;30460;50.836;4.390;2022-12-07T20:36:03;9.87;;;6.87;;
44732;SDS011;30460;50.836;4.390;2022-12-07T20:38:30;10.73;;;6.80;;
44732;SDS011;30460;50.836;4.390;2022-12-07T20:41:01;9.23;;;6.97;;
44732;SDS011;30460;50.836;4.390;2022-12-07T20:43:28;7.93;;;6.20;;
44732;SDS011;30460;50.836;4.390;2022-12-07T20:45:54;10.20;;;6.30;;
44732;SDS011;30460;50.836;4.390;2022-12-07T20:48:21;7.33;;;6.37;;
44732;SDS011;30460;50.836;4.390;2022-12-07T20:50:47;9.93;;;6.43;;
44732;SDS011;30460;50.836;4.390;2022-12-07T20:53:13;10.57;;;6.97;;
44732;SDS011;30460;50.836;4.390;2022-12-07T20:55:39;9.93;;;6.40;;
44732;SDS011;30460;50.836;4.390;2022-12-07T20:58:06;7.83;;;6.10;;
44732;SDS011;30460;50.836;4.390;2022-12-07T21:00:33;8.27;;;6.80;;
44732;SDS011;30460;50.836;4.390;2022-12-07T21:03:00;8.93;;;7.23;;
44732;SDS011;30460;50.836;4.390;2022-12-07T21:05:27;7.77;;;6.37;;
44732;SDS011;30460;50.836;4.390;2022-12-07T21:07:53;10.10;;;6.47;;
44732;SDS011;30460;50.836;4.390;2022-12-07T21:10:19;9.77;;;7.17;;
44732;SDS011;30460;50.836;4.390;2022-12-07T21:12:45;11.17;;;7.40;;
44732;SDS011;30460;50.836;4.390;2022-12-07T21:15:11;12.87;;;7.10;;
44732;SDS011;30460;50.836;4.390;2022-12-07T21:17:37;13.07;;;9.53;;
44732;SDS011;30460;50.836;4.390;2022-12-07T21:20:03;9.50;;;7.10;;
44732;SDS011;30460;50.836;4.390;2022-12-07T21:22:32;8.93;;;6.63;;
